Terminal Aerodrome Forecast
Issued by NWS Tampa Bay Area, FL

Home | Current Version | Previous Version | Text Only | Print | Product List | Glossary On
Versions: 1 2 3 4 5 6 7 8 9 10 11 12
000
FTUS42 KTBW 011123
TAFFMY
TAF
KFMY 011123Z 0112/0212 VRB04KT P6SM FEW030 SCT250
     FM011400 13005KT P6SM FEW030 SCT250
     FM011800 26007KT P6SM VCTS SCT035CB SCT080 BKN250
     FM020100 VRB03KT P6SM FEW030 SCT250=

USA.gov is the U.S. government's official web portal to all federal, state and local government web resources and services.